首页
METAR-TAF:

METAR-TAF

机场 :

伊瓜苏, 巴拉那州, 巴西

纬度: 25-31S, 经度: 054-35W, 海拔: 180米

当前天气观测

该预报发布于43分钟前的01:00 UTC
静风
温度 10°C
湿度 100%
气压 1019 hPa
能见度10公里或以上
1500米以下无云,无积雨云

METAR: SBFI 270100Z 00000KT CAVOK 10/10 Q1019

时间: 22:43 (01:43 UTC)

预报

该预报发布于4小时和43分钟前的21:00 UTC
预报有效从27日的 00点(UTC)到 27日的 24点(UTC)
风速节,风向
能见度10公里或以上
1500米以下无云,无积雨云
几率 30% :
短暂存在
从 27日的 09点(UTC)到 27日的 12点(UTC)
能見度: 0200
散云层高于2000英尺
成为
从 27日的 12点(UTC)到 27日的 14点(UTC)
风速5节,风向
能见度10公里或以上
少量云层高于2000英尺
成为
从 27日的 18点(UTC)到 27日的 20点(UTC)
风速6节,风向南转南东

TAF: SBFI 262100Z 2700/2724 00000KT CAVOK TN07/2707Z TX18/2718Z PROB30 TEMPO 2709/2712 0200 FG SCT020 BECMG 2712/2714 09005KT 9999 FEW020 BECMG 2718/2720 16006KT RMK PEC

超过4000个机场的气象观测和天气预报(METAR&TAF报告)。

可查询的气象台以黄色和红色小点在地图上表示。

将鼠标移到小点上方,可查看气象台名称。

然后点击查看天气观测和预报。

如需切换地图:点击带黑十字的绿色按钮放大地图;点击带横线的绿色按钮缩小地图;或者点击绿色箭头查看邻近地区的地图。


METAR-TAF: